Latest Coastal Weather Observations for Gold Coast Seaway

IDQ60701

Issued at 5:21 am EST Friday 18 August 2017 (issued every 10 minutes, with the page automatically refreshed every 10 minutes)

About coastal observations | Map of coastal stations | Coastal observations for QLD | Marine services | Other Formats
Station Details ID: 040764 Name: GOLD COAST SEAWAY Lat: -27.94 Lon: 153.43 Height: 2.98 m
Data from the previous 72 hours. | See also: Recent months at Gold Coast Seaway
Date/Time
EST
Temp
°C
Wind Pressure Rain since
9am
mm
Weather Cloud Vis
km
Sea
Height
m
Swell
Dir  Spd
kts
Gust
kts
hPa Trend Height
m
Period
s
Dir
18/05:00am 14.9 WNW 7 8 1012.5 - 0.0 - - - - - - -
18/04:30am 15.3 W 5 7 1012.1 - 0.0 - - - - - - -
18/04:00am 18.3 WNW 10 12 1011.8 - 0.0 - - - - - - -
18/03:30am 18.7 W 13 15 1011.5 - 0.0 - - - - - - -
18/03:00am 19.5 WNW 14 17 1011.4 - 0.0 - - - - - - -
18/02:30am 20.3 WNW 14 17 1011.5 - 0.0 - - - - - - -
18/02:00am 20.1 W 14 16 1011.3 - 0.0 - - - - - - -
18/01:30am 20.0 W 12 14 1011.3 - 0.0 - - - - - - -
18/01:00am 19.6 W 10 12 1011.4 - 0.0 - - - - - - -
18/12:30am 19.7 W 10 12 1011.6 - 0.0 - - - - - - -
18/12:00am 19.6 W 6 7 1011.5 - 0.0 - - - - - - -
 
Date/Time
EST
Temp
°C
Wind Pressure Rain since
9am
mm
Weather Cloud Vis
km
Sea
Height
m
Swell
Dir  Spd
kts
Gust
kts
hPa Trend Height
m
Period
s
Dir
17/11:30pm 19.9 W 6 7 1011.7 - 0.0 - - - - - - -
17/11:00pm 20.4 W 5 6 1011.6 - 0.0 - - - - - - -
17/10:30pm 21.7 W 9 11 1011.4 - 0.0 - - - - - - -
17/10:00pm 21.0 W 9 10 1011.2 - 0.0 - - - - - - -
17/09:30pm 20.4 WNW 7 9 1011.0 - 0.0 - - - - - - -
17/09:00pm 20.0 NW 8 10 1011.1 - 0.0 - - - - - - -
17/08:30pm 20.6 NNW 9 12 1010.9 - 0.0 - - - - - - -
17/08:00pm 20.8 NNW 9 11 1010.7 - 0.0 - - - - - - -
17/07:30pm 21.1 NNW 10 14 1010.5 - 0.0 - - - - - - -
17/07:00pm 21.4 NNW 10 12 1010.1 - 0.0 - - - - - - -
17/06:30pm 21.8 NNW 10 13 1009.6 - 0.0 - - - - - - -
17/06:00pm 22.4 NNW 9 12 1009.1 - 0.0 - - - - - - -
17/05:30pm 22.9 N 9 11 1008.6 - 0.0 - - - - - - -
17/05:00pm 22.7 NNW 9 14 1008.0 - 0.0 - - - - - - -
17/04:30pm 22.8 N 12 15 1007.6 - 0.0 - - - - - - -
17/04:00pm 22.5 N 12 15 1007.2 - 0.0 - - - - - - -
17/03:30pm 23.6 N 12 21 1007.0 - 0.0 - - - - - - -
17/03:00pm 23.4 N 14 16 1006.9 - 0.0 - - - - - - -
17/02:30pm 23.9 NE 13 15 1007.0 - 0.0 - - - - - - -
17/02:00pm 24.0 NNE 12 15 1007.5 - 0.0 - - - - - - -
17/01:30pm 25.1 NNE 12 15 1008.0 - 0.0 - - - - - - -
17/01:00pm 25.4 NE 13 15 1008.1 - 0.0 - - - - - - -
17/12:30pm 26.1 NNE 13 16 1008.6 - 0.0 - - - - - - -
17/12:00pm 28.1 NW 13 17 1009.1 - 0.0 - - - - - - -
17/11:30am 27.4 NNW 10 16 1009.8 - 0.0 - - - - - - -
17/11:00am 26.4 NW 14 15 1010.3 - 0.0 - - - - - - -
17/10:30am 26.2 NW 11 15 1010.7 - 0.0 - - - - - - -
17/10:00am 25.5 NW 13 16 1011.1 - 0.0 - - - - - - -
17/09:30am 24.6 NW 14 17 1011.2 - 0.0 - - - - - - -
17/09:00am 24.1 WNW 13 17 1011.5 - 0.0 - - - - - - -
17/08:30am 23.3 NW 13 16 1011.5 - 0.0 - - - - - - -
17/08:00am 21.4 N 7 9 1011.4 - 0.0 - - - - - - -
17/07:30am 20.7 NW 8 10 1011.4 - 0.0 - - - - - - -
17/07:00am 19.7 NW 9 12 1011.2 - 0.0 - - - - - - -
17/06:30am 18.9 NW 8 9 1010.9 - 0.0 - - - - - - -
17/06:00am 18.8 NW 7 9 1010.6 - 0.0 - - - - - - -
17/05:30am 18.1 NNW 7 10 1010.2 - 0.0 - - - - - - -
17/05:00am 17.9 N 8 10 1010.1 - 0.0 - - - - - - -
17/04:30am 18.0 NNW 8 10 1010.0 - 0.0 - - - - - - -
17/04:00am 18.2 NNW 8 10 1009.9 - 0.0 - - - - - - -
17/03:30am 18.5 NNW 7 9 1009.8 - 0.0 - - - - - - -
17/03:00am 18.4 NNW 7 10 1009.8 - 0.0 - - - - - - -
17/02:30am 18.6 NNW 8 11 1010.0 - 0.0 - - - - - - -
17/02:00am 18.6 NNW 6 8 1010.3 - 0.0 - - - - - - -
17/01:30am 18.9 NNW 7 9 1010.5 - 0.0 - - - - - - -
17/01:00am 19.3 NW 8 9 1010.6 - 0.0 - - - - - - -
17/12:30am 19.4 NNW 9 12 1010.7 - 0.0 - - - - - - -
17/12:00am 19.3 NNW 8 10 1010.8 - 0.0 - - - - - - -
 
Date/Time
EST
Temp
°C
Wind Pressure Rain since
9am
mm
Weather Cloud Vis
km
Sea
Height
m
Swell
Dir  Spd
kts
Gust
kts
hPa Trend Height
m
Period
s
Dir
16/11:30pm 19.4 NW 8 9 1010.9 - 0.0 - - - - - - -
16/11:00pm 19.6 NW 8 10 1010.9 - 0.0 - - - - - - -
16/10:30pm 19.9 NW 9 15 1011.0 - 0.0 - - - - - - -
16/10:00pm 20.3 NW 10 14 1011.0 - 0.0 - - - - - - -
16/09:30pm 20.5 NW 12 17 1010.9 - 0.0 - - - - - - -
16/09:00pm 20.8 NNW 14 18 1010.5 - 0.0 - - - - - - -
16/08:30pm 21.3 NNW 15 19 1010.3 - 0.0 - - - - - - -
16/08:00pm 21.4 NNW 14 18 1010.0 - 0.0 - - - - - - -
16/07:30pm 21.7 NNW 17 22 1009.7 - 0.0 - - - - - - -
16/07:00pm 22.1 NNW 16 21 1009.4 - 0.0 - - - - - - -
16/06:30pm 22.2 NNW 12 17 1009.1 - 0.0 - - - - - - -
16/06:00pm 22.3 NNW 10 14 1008.8 - 0.0 - - - - - - -
16/05:30pm 22.6 NNW 10 15 1008.5 - 0.0 - - - - - - -
16/05:00pm 23.6 NNW 9 12 1008.3 - 0.0 - - - - - - -
16/04:30pm 24.5 NNW 13 20 1008.0 - 0.0 - - - - - - -
16/04:00pm 25.4 N 12 17 1007.8 - 0.0 - - - - - - -
16/03:30pm 25.6 NNW 13 20 1007.7 - 0.0 - - - - - - -
16/03:00pm 25.3 NNW 14 20 1008.0 - 0.0 - - - - - - -
16/02:30pm 25.7 NNW 13 19 1008.4 - 0.0 - - - - - - -
16/02:00pm 25.5 N 15 21 1008.7 - 0.0 - - - - - - -
16/01:30pm 25.1 N 15 23 1009.1 - 0.0 - - - - - - -
16/01:00pm 25.1 N 15 20 1009.6 - 0.0 - - - - - - -
16/12:30pm 24.8 N 14 18 1010.3 - 0.0 - - - - - - -
16/12:00pm 24.1 NNE 14 17 1011.2 - 0.0 - - - - - - -
16/11:30am 24.1 N 12 14 1012.0 - 0.0 - - - - - - -
16/11:00am 23.5 NNW 9 12 1012.8 - 0.0 - - - - - - -
16/10:30am 22.4 NNW 9 13 1013.3 - 0.0 - - - - - - -
16/10:00am 21.4 NNW 11 15 1013.8 - 0.0 - - - - - - -
16/09:30am 20.3 NNW 13 18 1013.9 - 0.0 - - - - - - -
16/09:00am 19.7 NNW 14 20 1014.0 - 0.0 - - - - - - -
16/08:30am 19.1 NW 14 17 1014.4 - 0.0 - - - - - - -
16/08:00am 18.2 NW 11 15 1014.4 - 0.0 - - - - - - -
16/07:30am 17.0 NW 9 13 1014.3 - 0.0 - - - - - - -
16/07:00am 15.5 NNW 7 8 1014.2 - 0.0 - - - - - - -
16/06:30am 15.1 N 8 11 1013.9 - 0.0 - - - - - - -
16/06:00am 15.3 NNW 7 9 1013.7 - 0.0 - - - - - - -
16/05:30am 15.4 NW 9 11 1013.6 - 0.0 - - - - - - -
16/05:00am 15.2 NW 9 10 1013.2 - 0.0 - - - - - - -
16/04:30am 15.5 NW 10 12 1013.2 - 0.0 - - - - - - -
16/04:00am 15.7 NW 11 14 1013.1 - 0.0 - - - - - - -
16/03:30am 16.2 NNW 8 10 1013.0 - 0.0 - - - - - - -
16/03:00am 16.3 NW 9 13 1013.3 - 0.0 - - - - - - -
16/02:30am 16.5 NW 7 8 1013.5 - 0.0 - - - - - - -
16/02:00am 16.0 N 5 7 1013.8 - 0.0 - - - - - - -
16/01:30am 15.4 NNW 6 7 1014.2 - 0.0 - - - - - - -
16/01:00am 15.0 NW 5 6 1014.6 - 0.0 - - - - - - -
16/12:30am 16.2 NW 5 6 1015.0 - 0.0 - - - - - - -
16/12:00am 17.1 WNW 6 7 1015.3 - 0.0 - - - - - - -
 
Date/Time
EST
Temp
°C
Wind Pressure Rain since
9am
mm
Weather Cloud Vis
km
Sea
Height
m
Swell
Dir  Spd
kts
Gust
kts
hPa Trend Height
m
Period
s
Dir
15/11:30pm 17.9 NW 9 10 1015.2 - 0.0 - - - - - - -
15/11:00pm 15.6 NW 7 8 1015.2 - 0.0 - - - - - - -
15/10:30pm 16.3 WNW 5 6 1015.5 - 0.0 - - - - - - -
15/10:00pm 16.5 WNW 5 5 1015.5 - 0.0 - - - - - - -
15/09:30pm 17.4 W 6 7 1015.5 - 0.0 - - - - - - -
15/09:00pm 17.6 WNW 6 7 1015.6 - 0.0 - - - - - - -
15/08:30pm 17.6 WNW 6 6 1015.4 - 0.0 - - - - - - -
15/08:00pm 18.0 NW 5 6 1015.2 - 0.0 - - - - - - -
15/07:30pm 18.6 NW 6 7 1015.1 - 0.0 - - - - - - -
15/07:00pm 19.1 NW 7 9 1014.9 - 0.0 - - - - - - -
15/06:30pm 19.3 NNW 7 9 1015.0 - 0.0 - - - - - - -
15/06:00pm 19.4 NNW 6 8 1014.7 - 0.0 - - - - - - -
15/05:30pm 20.1 N 9 10 1014.5 - 0.0 - - - - - - -
15/05:00pm 20.9 NNE 9 10 1014.8 - 0.0 - - - - - - -
15/04:30pm 21.8 NNE 9 10 1014.7 - 0.0 - - - - - - -
15/04:00pm 22.5 NNE 9 11 1014.6 - 0.0 - - - - - - -
15/03:30pm 22.3 NE 9 10 1014.6 - 0.0 - - - - - - -
15/03:00pm 22.6 NE 8 9 1014.8 - 0.0 - - - - - - -
15/02:30pm 22.9 NE 9 10 1014.6 - 0.0 - - - - - - -
15/02:00pm 22.9 NE 8 9 1015.0 - 0.0 - - - - - - -
15/01:30pm 23.5 NE 8 9 1015.3 - 0.0 - - - - - - -
15/01:00pm 23.4 NE 8 9 1015.7 - 0.0 - - - - - - -
15/12:30pm 23.7 NE 7 8 1016.2 - 0.0 - - - - - - -
15/12:00pm 23.1 NE 7 7 1016.7 - 0.0 - - - - - - -
15/11:30am 22.7 NE 7 8 1017.5 - 0.0 - - - - - - -
15/11:00am 22.6 NNE 6 7 1018.2 - 0.0 - - - - - - -
15/10:30am 23.1 NNE 6 7 1018.2 - 0.0 - - - - - - -
15/10:00am 21.4 NW 5 6 1018.9 - 0.0 - - - - - - -
15/09:30am 19.5 WNW 3 5 1018.9 - 0.0 - - - - - - -
15/09:00am 18.7 WNW 5 6 1019.0 - 0.0 - - - - - - -
15/08:30am 17.5 WNW 6 6 1018.9 - 0.0 - - - - - - -
15/08:00am 16.2 WNW 6 6 1018.8 - 0.0 - - - - - - -
15/07:30am 14.7 W 5 6 1018.6 - 0.0 - - - - - - -
15/07:00am 13.7 WNW 6 8 1018.3 - 0.0 - - - - - - -
15/06:30am 12.6 WNW 5 6 1017.9 - 0.0 - - - - - - -
15/06:00am 12.1 SW 5 6 1017.9 - 0.0 - - - - - - -
15/05:30am 12.9 WSW 5 6 1017.7 - 0.0 - - - - - - -

Other Formats:

Comma delimited format used in spreadsheet applications
http://www.bom.gov.au/fwo/IDQ60701/IDQ60701.94580.axf

JavaScript Object Notation format (JSON) in row-major order
http://www.bom.gov.au/fwo/IDQ60701/IDQ60701.94580.json